首页
METAR-TAF:

METAR-TAF

机场 :

奧爾托國際機場

拉巴斯, 玻利维亚

纬度: 16-31S, 经度: 068-11W, 海拔: 4058米

当前天气观测

该预报发布于1小时和2分钟前的01:00 UTC
风速4节,风向东转东北
温度 8°C
湿度 81%
气压 1034 hPa
能见度10公里或以上
少量云层高于1300英尺

METAR: SLLP 220100Z 07004KT 9999 FEW013 08/05 Q1034

时间: 22:02 (02:02 UTC)

预报

该预报发布于4小时和2分钟前的22:00 UTC
预报有效从22日的 00点(UTC)到 22日的 24点(UTC)
风速5节,风向东转东北
能见度10公里或以上
散云层高于1500英尺
短暂存在
从 22日的 06点(UTC)到 22日的 10点(UTC)
能見度: 3000
少量云层高于200英尺
附近有雾
成为
从 22日的 14点(UTC)到 22日的 16点(UTC)
风速6节,风向东南
散云层高于1700英尺
少量云层高于2000英尺, 积雨云.
短暂存在
从 22日的 17点(UTC)到 22日的 21点(UTC)
能見度: 8000
雷暴, 雨

TAF: SLLP 212200Z 2200/2224 07005KT 9999 SCT015 TX16/2220Z TN02/2210Z TEMPO 2206/2210 3000E VCFG FEW002 BECMG 2214/2216 13006KT SCT017 FEW020CB TEMPO 2217/2221 8000 TSRA

超过4000个机场的气象观测和天气预报(METAR&TAF报告)。

可查询的气象台以黄色和红色小点在地图上表示。

将鼠标移到小点上方,可查看气象台名称。

然后点击查看天气观测和预报。

如需切换地图:点击带黑十字的绿色按钮放大地图;点击带横线的绿色按钮缩小地图;或者点击绿色箭头查看邻近地区的地图。


METAR-TAF: